createdAt,value
2023-05-12T00:02:44.785Z,99949.69
2023-05-12T00:05:47.681Z,99951.50
2023-05-12T00:08:52.284Z,99949.56
2023-05-12T00:11:55.169Z,99954.06
2023-05-12T00:14:57.987Z,99963.75
2023-05-12T00:18:00.819Z,99957.19
2023-05-12T00:21:03.689Z,99960.53
2023-05-12T00:24:08.343Z,99961.34
2023-05-12T00:27:11.192Z,99958.53
2023-05-12T00:30:14.271Z,99968.91
2023-05-12T00:33:17.314Z,99968.81
2023-05-12T00:36:20.126Z,99973.16
2023-05-12T00:39:24.335Z,99965.00
2023-05-12T00:42:27.176Z,99970.47
2023-05-12T00:45:30.607Z,99971.03
2023-05-12T00:48:33.866Z,99976.53
2023-05-12T00:51:36.653Z,99965.69
2023-05-12T00:54:41.399Z,99963.16
2023-05-12T00:57:44.260Z,99963.03
2023-05-12T01:00:47.102Z,99967.97
2023-05-12T01:03:49.900Z,99971.88
2023-05-12T01:06:55.459Z,99969.91
2023-05-12T01:09:59.847Z,99972.72
2023-05-12T01:13:03.207Z,99977.50
2023-05-12T01:16:07.387Z,99980.84
2023-05-12T01:19:11.620Z,99975.78
2023-05-12T01:22:14.519Z,99976.66
2023-05-12T01:25:20.622Z,99971.16
2023-05-12T01:28:24.737Z,99977.50
2023-05-12T01:31:27.557Z,99977.50
2023-05-12T01:34:30.276Z,99973.25
2023-05-12T01:37:33.034Z,99984.66
2023-05-12T01:40:36.516Z,99983.94
2023-05-12T01:43:40.622Z,99986.44
2023-05-12T01:46:43.438Z,99983.94
2023-05-12T01:49:46.601Z,99981.13
2023-05-12T01:52:49.377Z,99990.09
2023-05-12T01:55:52.193Z,99977.75
2023-05-12T01:58:56.292Z,99979.72
2023-05-12T02:01:59.183Z,99983.38
2023-05-12T02:05:01.994Z,99981.78
2023-05-12T02:08:04.965Z,99983.63
2023-05-12T02:11:08.160Z,99976.47
2023-05-12T02:14:12.344Z,99981.38
2023-05-12T02:17:15.345Z,99978.81
2023-05-12T02:20:18.236Z,99983.91
2023-05-12T02:23:21.746Z,99977.88
2023-05-12T02:26:24.547Z,99985.88
2023-05-12T02:29:28.659Z,99991.47
2023-05-12T02:32:31.460Z,99985.88
2023-05-12T02:35:34.235Z,99979.41
2023-05-12T02:38:37.123Z,99984.06
2023-05-12T02:41:39.887Z,99983.91
2023-05-12T02:44:44.059Z,99981.78
2023-05-12T02:47:46.813Z,99976.06
2023-05-12T02:50:49.600Z,99983.38
2023-05-12T02:53:52.346Z,99977.19
2023-05-12T02:56:56.728Z,99985.31
2023-05-12T03:00:00.917Z,99984.47
2023-05-12T03:03:03.870Z,99973.69
2023-05-12T03:06:06.972Z,99987.56
2023-05-12T03:09:10.140Z,99992.91
2023-05-12T03:12:12.892Z,99989.13
2023-05-12T03:15:17.180Z,99992.22
2023-05-12T03:18:19.966Z,99978.75
2023-05-12T03:21:22.835Z,99996.03
2023-05-12T03:24:25.607Z,99997.56
2023-05-12T03:27:28.451Z,99993.91
2023-05-12T03:30:33.208Z,99997.31
2023-05-12T03:33:36.083Z,100005.19
2023-05-12T03:36:38.908Z,100006.88
2023-05-12T03:39:41.736Z,100001.13
2023-05-12T03:42:44.540Z,100000.00
2023-05-12T03:45:48.727Z,100004.38
2023-05-12T03:48:51.486Z,100011.56
2023-05-12T03:51:54.274Z,100009.03
2023-05-12T03:54:57.032Z,100013.25
2023-05-12T03:57:59.837Z,100022.25
2023-05-12T04:01:03.973Z,100023.38
2023-05-12T04:04:06.829Z,100019.44
2023-05-12T04:07:09.597Z,100021.09
2023-05-12T04:10:12.463Z,100020.56
2023-05-12T04:13:15.267Z,100014.97
2023-05-12T04:16:19.503Z,100020.84
2023-05-12T04:19:22.281Z,100017.34
2023-05-12T04:22:25.880Z,100019.31
2023-05-12T04:25:28.800Z,100026.50
2023-05-12T04:28:32.117Z,100017.50
2023-05-12T04:31:36.387Z,100022.97
2023-05-12T04:34:39.212Z,100023.53
2023-05-12T04:37:42.210Z,100027.78
2023-05-12T04:40:45.052Z,100026.09
2023-05-12T04:46:56.536Z,100027.47
2023-05-12T04:49:59.363Z,100030.03
2023-05-12T04:53:02.200Z,100036.94
2023-05-12T04:56:05.180Z,100031.44
2023-05-12T04:59:07.928Z,100037.38
2023-05-12T05:02:12.899Z,100031.19
2023-05-12T05:05:15.729Z,100033.00
2023-05-12T05:08:18.571Z,100041.72
2023-05-12T05:11:22.399Z,100039.75
2023-05-12T05:14:25.174Z,100044.53
2023-05-12T05:17:29.380Z,100040.59
2023-05-12T05:20:32.860Z,100043.97
2023-05-12T05:23:35.678Z,100043.84
2023-05-12T05:26:38.465Z,100041.75
2023-05-12T05:29:41.261Z,100045.09
2023-05-12T05:32:45.457Z,100037.34
2023-05-12T05:35:48.301Z,100043.97
2023-05-12T05:38:51.050Z,100038.19
2023-05-12T05:41:53.826Z,100041.44
2023-05-12T05:44:56.702Z,100041.16
2023-05-12T05:48:00.902Z,100044.81
2023-05-12T05:51:05.090Z,100038.22
2023-05-12T05:54:07.851Z,100046.22
2023-05-12T05:57:10.698Z,100032.88
2023-05-12T06:00:14.450Z,100046.50
2023-05-12T06:03:18.699Z,100036.94
2023-05-12T06:06:21.554Z,100030.44
2023-05-12T06:09:24.343Z,100035.78
2023-05-12T06:12:27.130Z,100031.28
2023-05-12T06:15:29.937Z,100043.66
2023-05-12T06:18:37.885Z,100037.47
2023-05-12T06:21:40.978Z,100038.19
2023-05-12T06:24:43.827Z,100040.00
2023-05-12T06:27:46.561Z,100034.81
2023-05-12T06:30:49.378Z,100038.31
2023-05-12T06:33:53.538Z,100032.97
2023-05-12T06:36:56.305Z,100035.66
2023-05-12T06:39:59.134Z,100042.69
2023-05-12T06:43:02.942Z,100035.34
2023-05-12T06:46:06.320Z,100037.75
2023-05-12T06:49:10.559Z,100051.97
2023-05-12T06:52:13.252Z,100050.97
2023-05-12T06:55:20.049Z,100038.44
2023-05-12T06:58:23.095Z,100041.81
2023-05-12T07:01:25.884Z,100038.56
2023-05-12T07:04:30.033Z,100047.00
2023-05-12T07:07:32.866Z,100044.06
2023-05-12T07:10:35.983Z,100046.44
2023-05-12T07:13:39.255Z,100040.84
2023-05-12T07:16:42.068Z,100039.84
2023-05-12T07:19:46.202Z,100038.44
2023-05-12T07:22:49.120Z,100036.03
2023-05-12T07:25:52.022Z,100052.91
2023-05-12T07:28:54.822Z,100044.78
2023-05-12T07:31:57.765Z,100044.22
2023-05-12T07:35:02.256Z,100052.91
2023-05-12T07:38:05.310Z,100050.25
2023-05-12T07:41:09.325Z,100041.63
2023-05-12T07:44:12.469Z,100042.47
2023-05-12T07:47:15.475Z,100042.06
2023-05-12T07:50:19.996Z,100047.25
2023-05-12T07:53:22.870Z,100042.91
2023-05-12T07:56:25.668Z,100041.22
2023-05-12T07:59:28.616Z,100035.44
2023-05-12T08:02:31.482Z,100042.47
2023-05-12T08:05:35.744Z,100038.22
2023-05-12T08:08:38.517Z,100039.53
2023-05-12T08:11:44.015Z,100037.69
2023-05-12T08:14:49.070Z,100029.53
2023-05-12T08:17:52.117Z,100032.59
2023-05-12T08:20:56.281Z,100037.81
2023-05-12T08:23:58.965Z,100027.53
2023-05-12T08:27:01.739Z,100026.69
2023-05-12T08:30:04.807Z,100019.75
2023-05-12T08:33:07.769Z,100012.03
2023-05-12T08:36:12.123Z,100014.72
2023-05-12T08:39:15.112Z,100014.56
2023-05-12T08:42:26.511Z,100022.59
2023-05-12T08:45:29.452Z,100014.66
2023-05-12T08:48:35.013Z,100021.00
2023-05-12T08:51:39.576Z,100020.00
2023-05-12T08:54:55.099Z,100024.94
2023-05-12T08:57:59.699Z,100030.28
2023-05-12T09:01:04.884Z,100024.63
2023-05-12T09:04:07.742Z,100025.63
2023-05-12T09:07:12.251Z,100029.16
2023-05-12T09:10:32.257Z,100022.94
2023-05-12T09:13:40.466Z,100025.22
2023-05-12T09:16:45.398Z,100030.13
2023-05-12T09:19:48.194Z,100028.03
2023-05-12T09:22:52.321Z,100030.28
2023-05-12T09:26:00.617Z,100041.84
2023-05-12T09:29:08.458Z,100031.13
2023-05-12T09:32:11.552Z,100040.84
2023-05-12T09:35:14.347Z,100042.25
2023-05-12T09:38:18.437Z,100045.63
2023-05-12T09:41:23.542Z,100048.44
2023-05-12T09:44:26.953Z,100046.88
2023-05-12T09:47:30.271Z,100050.81
2023-05-12T09:50:44.391Z,100052.38
2023-05-12T09:53:51.623Z,100059.09
2023-05-12T09:56:54.382Z,100049.13
2023-05-12T09:59:57.245Z,100045.56
2023-05-12T10:03:00.169Z,100028.28
2023-05-12T10:06:06.365Z,100033.91
2023-05-12T10:09:15.856Z,100036.31
2023-05-12T10:12:18.726Z,100030.13
2023-05-12T10:15:22.361Z,100026.56
2023-05-12T10:18:25.388Z,100024.88
2023-05-12T10:21:28.739Z,100025.59
2023-05-12T10:24:33.268Z,100023.16
2023-05-12T10:27:38.317Z,100026.81
2023-05-12T10:30:41.629Z,100028.13
2023-05-12T10:33:44.455Z,100025.59
2023-05-12T10:36:48.196Z,100022.09
2023-05-12T10:39:53.015Z,100017.25
2023-05-12T10:42:58.981Z,100010.38
2023-05-12T10:46:08.658Z,100029.13
2023-05-12T10:49:13.120Z,100023.75
2023-05-12T10:52:20.872Z,100019.53
2023-05-12T10:55:33.313Z,100013.50
2023-05-12T10:58:36.702Z,100017.69
2023-05-12T11:01:41.172Z,100017.69
2023-05-12T11:04:48.304Z,100007.28
2023-05-12T11:07:52.510Z,100006.16
2023-05-12T11:10:56.924Z,100005.72
2023-05-12T11:13:59.760Z,100008.22
2023-05-12T11:17:04.786Z,100009.63
2023-05-12T11:20:09.718Z,99998.91
2023-05-12T11:23:12.530Z,100003.97
2023-05-12T11:26:19.742Z,100004.81
2023-05-12T11:29:22.821Z,100008.72
2023-05-12T11:32:25.675Z,100003.53
2023-05-12T11:35:31.209Z,99999.00
2023-05-12T11:38:34.028Z,100001.38
2023-05-12T11:41:38.219Z,99990.06
2023-05-12T11:44:47.489Z,99996.72
2023-05-12T11:47:50.506Z,99998.00
2023-05-12T11:50:53.599Z,99986.31
2023-05-12T11:53:56.799Z,99989.38
2023-05-12T11:57:01.411Z,100000.53
2023-05-12T12:00:07.008Z,100002.38
2023-05-12T12:03:11.557Z,100009.53
2023-05-12T12:06:14.609Z,99999.94
2023-05-12T12:09:17.378Z,99998.22
2023-05-12T12:12:21.537Z,99997.81
2023-05-12T12:15:24.253Z,100012.13
2023-05-12T12:18:27.246Z,100006.47
2023-05-12T12:21:30.057Z,100001.44
2023-05-12T12:24:33.139Z,99994.44
2023-05-12T12:27:37.323Z,99995.25
2023-05-12T12:30:40.172Z,100001.94
2023-05-12T12:33:43.983Z,99994.66
2023-05-12T12:36:46.983Z,99993.91
2023-05-12T12:39:49.756Z,99996.88
2023-05-12T12:42:54.138Z,99985.31
2023-05-12T12:45:57.544Z,99988.66
2023-05-12T12:49:00.381Z,99989.72
2023-05-12T12:52:03.277Z,99985.31
2023-05-12T12:55:06.912Z,99984.97
2023-05-12T12:58:10.992Z,99976.81
2023-05-12T13:01:13.840Z,99981.94
2023-05-12T13:04:19.630Z,99975.84
2023-05-12T13:07:22.487Z,99967.78
2023-05-12T13:10:25.570Z,99969.94
2023-05-12T13:13:29.728Z,99970.88
2023-05-12T13:16:32.547Z,99969.47
2023-05-12T13:19:37.789Z,99969.75
2023-05-12T13:22:40.943Z,99971.53
2023-05-12T13:25:44.908Z,99971.38
2023-05-12T13:28:49.243Z,99967.78
2023-05-12T13:31:52.034Z,99956.34
2023-05-12T13:34:54.871Z,99980.75
2023-05-12T13:37:57.728Z,99980.19
2023-05-12T13:41:00.570Z,99979.06
2023-05-12T13:44:04.705Z,99978.28
2023-05-12T13:47:07.965Z,99985.41
2023-05-12T13:50:11.212Z,99984.94
2023-05-12T13:53:14.051Z,99986.13
2023-05-12T13:56:17.270Z,99985.16
2023-05-12T13:59:21.702Z,99980.94
2023-05-12T14:02:24.520Z,99984.00
2023-05-12T14:05:27.467Z,99976.97
2023-05-12T14:08:30.225Z,99977.50
2023-05-12T14:11:33.041Z,99979.94
2023-05-12T14:14:37.308Z,99979.13
2023-05-12T14:17:40.160Z,99972.44
2023-05-12T14:20:42.923Z,99972.38
2023-05-12T14:23:45.709Z,99965.41
2023-05-12T14:26:48.792Z,99962.97
2023-05-12T14:29:52.974Z,99972.13
2023-05-12T14:32:55.807Z,99966.66
2023-05-12T14:36:06.463Z,99975.03
2023-05-12T14:39:10.529Z,99964.38
2023-05-12T14:42:13.296Z,99962.94
2023-05-12T14:45:17.909Z,99963.47
2023-05-12T14:48:21.197Z,99962.47
2023-05-12T14:51:24.177Z,99961.81
2023-05-12T14:54:27.048Z,99966.00
2023-05-12T14:57:30.435Z,99965.69
2023-05-12T15:00:34.572Z,99964.56
2023-05-12T15:03:37.400Z,99962.88
2023-05-12T15:06:40.264Z,99955.50
2023-05-12T15:09:43.078Z,99956.50
2023-05-12T15:12:45.928Z,99961.53
2023-05-12T15:15:51.852Z,99959.56
2023-05-12T15:18:56.917Z,99959.69
2023-05-12T15:21:59.889Z,99953.50
2023-05-12T15:25:04.577Z,99950.81
2023-05-12T15:28:07.623Z,99950.81
2023-05-12T15:31:11.834Z,99956.19
2023-05-12T15:34:14.605Z,99956.56
2023-05-12T15:37:17.384Z,99960.53
2023-05-12T15:40:20.200Z,99964.06
2023-05-12T15:43:23.013Z,99973.31
2023-05-12T15:46:27.309Z,99965.28
2023-05-12T15:49:30.176Z,99959.09
2023-05-12T15:52:32.925Z,99969.34
2023-05-12T15:55:35.772Z,99960.47
2023-05-12T15:58:38.540Z,99963.97
2023-05-12T16:01:42.663Z,99958.78
2023-05-12T16:04:45.534Z,99969.03
2023-05-12T16:07:48.540Z,99963.50
2023-05-12T16:10:51.382Z,99966.34
2023-05-12T16:13:54.217Z,99974.03
2023-05-12T16:16:58.573Z,99974.72
2023-05-12T16:20:02.078Z,99966.97
2023-05-12T16:23:04.899Z,99971.47
2023-05-12T16:26:07.734Z,99973.31
2023-05-12T16:29:10.613Z,99972.97
2023-05-12T16:32:14.862Z,99977.94
2023-05-12T16:35:17.821Z,99982.94
2023-05-12T16:38:20.658Z,99978.84
2023-05-12T16:41:23.483Z,99988.91
2023-05-12T16:44:26.224Z,99994.59
2023-05-12T16:47:30.647Z,99987.53
2023-05-12T16:50:33.483Z,99983.31
2023-05-12T16:53:36.726Z,99993.63
2023-05-12T16:56:39.466Z,99986.47
2023-05-12T16:59:42.216Z,99996.47
2023-05-12T17:02:46.545Z,99992.13
2023-05-12T17:05:50.040Z,99997.47
2023-05-12T17:08:52.844Z,99999.63
2023-05-12T17:11:55.688Z,100000.59
2023-05-12T17:15:07.093Z,99997.41
2023-05-12T17:18:12.936Z,100005.88
2023-05-12T17:21:15.917Z,100006.03
2023-05-12T17:24:18.693Z,100002.69
2023-05-12T17:27:21.649Z,100008.03
2023-05-12T17:30:24.725Z,100009.16
2023-05-12T17:33:29.567Z,100015.28
2023-05-12T17:36:33.102Z,100017.91
2023-05-12T17:39:38.141Z,100020.91
2023-05-12T17:42:40.940Z,100024.44
2023-05-12T17:45:43.926Z,100027.00
2023-05-12T17:48:48.096Z,100031.78
2023-05-12T17:51:50.797Z,100027.41
2023-05-12T17:54:55.776Z,100042.63
2023-05-12T17:57:58.526Z,100031.91
2023-05-12T18:01:01.432Z,100031.53
2023-05-12T18:04:05.877Z,100043.09
2023-05-12T18:07:08.646Z,100025.34
2023-05-12T18:10:12.109Z,100032.66
2023-05-12T18:13:16.034Z,100030.72
2023-05-12T18:16:28.335Z,100030.31
2023-05-12T18:19:33.681Z,100041.00
2023-05-12T18:22:36.516Z,100038.50
2023-05-12T18:25:39.424Z,100046.53
2023-05-12T18:28:42.409Z,100042.16
2023-05-12T18:31:45.220Z,100043.00
2023-05-12T18:34:49.361Z,100041.44
2023-05-12T18:37:52.125Z,100042.16
2023-05-12T18:40:55.078Z,100053.16
2023-05-12T18:43:57.866Z,100044.28
2023-05-12T18:47:00.731Z,100048.63
2023-05-12T18:50:05.482Z,100052.75
2023-05-12T18:53:09.413Z,100050.06
2023-05-12T18:56:12.157Z,100051.72
2023-05-12T18:59:15.073Z,100045.66
2023-05-12T19:02:18.511Z,100052.22
2023-05-12T19:05:23.020Z,100055.16
2023-05-12T19:08:25.995Z,100059.34
2023-05-12T19:11:28.793Z,100053.34
2023-05-12T19:14:31.733Z,100051.22
2023-05-12T19:17:34.907Z,100053.50
2023-05-12T19:20:39.068Z,100054.00
2023-05-12T19:23:41.923Z,100049.97
2023-05-12T19:26:44.986Z,100052.03
2023-05-12T19:29:47.786Z,100049.28
2023-05-12T19:32:50.639Z,100048.34
2023-05-12T19:35:55.509Z,100046.50
2023-05-12T19:38:59.687Z,100051.09
2023-05-12T19:42:02.499Z,100047.25
2023-05-12T19:45:06.053Z,100045.56
2023-05-12T19:48:09.018Z,100041.06
2023-05-12T19:51:13.422Z,100041.69
2023-05-12T19:54:16.248Z,100043.59
2023-05-12T19:57:19.928Z,100040.16
2023-05-12T20:00:22.806Z,100045.69
2023-05-12T20:03:25.696Z,100043.78
2023-05-12T20:06:29.944Z,100044.09
2023-05-12T20:09:32.701Z,100053.13
2023-05-12T20:12:35.499Z,100045.50
2023-05-12T20:15:40.051Z,100051.47
2023-05-12T20:18:42.781Z,100051.78
2023-05-12T20:21:46.963Z,100046.81
2023-05-12T20:24:50.594Z,100057.28
2023-05-12T20:27:55.523Z,100046.47
2023-05-12T20:30:58.348Z,100045.34
2023-05-12T20:34:01.392Z,100044.03
2023-05-12T20:37:05.616Z,100053.31
2023-05-12T20:40:09.231Z,100057.00
2023-05-12T20:43:13.539Z,100050.44
2023-05-12T20:46:16.456Z,100056.72
2023-05-12T20:49:19.262Z,100049.34
2023-05-12T20:52:23.680Z,100049.94
2023-05-12T20:55:26.740Z,100050.94
2023-05-12T20:58:29.591Z,100053.94
2023-05-12T21:01:32.441Z,100051.28
2023-05-12T21:04:35.261Z,100049.28
2023-05-12T21:07:39.387Z,100054.91
2023-05-12T21:10:42.142Z,100057.88
2023-05-12T21:13:44.983Z,100053.03
2023-05-12T21:16:47.814Z,100050.47
2023-05-12T21:19:50.658Z,100050.59
2023-05-12T21:22:55.745Z,100048.69
2023-05-12T21:25:58.584Z,100048.34
2023-05-12T21:29:02.920Z,100038.13
2023-05-12T21:32:06.041Z,100049.94
2023-05-12T21:35:09.109Z,100038.72
2023-05-12T21:38:13.465Z,100042.59
2023-05-12T21:41:16.287Z,100049.31
2023-05-12T21:44:19.057Z,100052.31
2023-05-12T21:47:21.903Z,100049.91
2023-05-12T21:50:24.729Z,100050.16
2023-05-12T21:53:28.872Z,100056.63
2023-05-12T21:56:31.648Z,100056.34
2023-05-12T21:59:34.416Z,100053.53
2023-05-12T22:02:37.278Z,100045.38
2023-05-12T22:05:40.106Z,100053.13
2023-05-12T22:08:44.428Z,100051.84
2023-05-12T22:11:47.452Z,100051.84
2023-05-12T22:14:50.204Z,100053.09
2023-05-12T22:17:53.338Z,100052.41
2023-05-12T22:20:56.214Z,100059.44
2023-05-12T22:24:00.301Z,100050.03
2023-05-12T22:27:03.093Z,100050.28
2023-05-12T22:30:06.476Z,100050.72
2023-05-12T22:33:09.452Z,100051.56
2023-05-12T22:36:12.235Z,100058.59
2023-05-12T22:39:16.621Z,100050.16
2023-05-12T22:42:19.426Z,100055.78
2023-05-12T22:45:22.259Z,100059.84
2023-05-12T22:48:25.059Z,100052.97
2023-05-12T22:51:27.909Z,100049.47
2023-05-12T22:54:32.087Z,100055.50
2023-05-12T22:57:34.852Z,100053.66
2023-05-12T23:00:37.757Z,100056.34
2023-05-12T23:03:40.715Z,100051.84
2023-05-12T23:06:43.581Z,100050.00
2023-05-12T23:09:47.776Z,100051.56
2023-05-12T23:12:50.692Z,100050.84
2023-05-12T23:15:53.466Z,100047.31
2023-05-12T23:18:56.279Z,100052.69
2023-05-12T23:21:59.181Z,100052.69
2023-05-12T23:25:03.410Z,100048.16
2023-05-12T23:28:06.219Z,100046.50
2023-05-12T23:31:08.989Z,100052.81
2023-05-12T23:34:11.773Z,100054.94
2023-05-12T23:37:14.662Z,100049.75
2023-05-12T23:40:18.928Z,100057.88
2023-05-12T23:43:21.857Z,100053.53
2023-05-12T23:46:24.723Z,100050.16
2023-05-12T23:49:27.595Z,100048.75
2023-05-12T23:52:30.447Z,100045.38
2023-05-12T23:55:34.599Z,100056.63
2023-05-12T23:58:37.384Z,100052.41
